Time;durP1;ratioP1;P1;durP2;ratioP2;P2;SDS_P1;SDS_P2;PMS_P1;PMS_P2;Temp;Humidity;BMP_temperature;BMP_pressure;BME280_temperature;BME280_humidity;BME280_pressure;Samples;Min_cycle;Max_cycle;Signal;HPM_P1;HPM_P2
2022/05/15 00:01:37;;;;;;;10.15;2.42;;;14.40;1.00;;;;;;10169274;28;96093;-46
2022/05/15 00:06:37;;;;;;;9.18;2.60;;;14.30;1.00;;;;;;10208544;28;84105;-45
2022/05/15 00:11:38;;;;;;;5.22;2.15;;;14.20;1.00;;;;;;10167538;28;86632;-46
2022/05/15 00:16:38;;;;;;;3.15;1.88;;;14.10;1.00;;;;;;10168281;28;84870;-46
2022/05/15 00:21:40;;;;;;;7.45;1.88;;;14.00;1.00;;;;;;10168908;28;84764;-45
2022/05/15 00:26:41;;;;;;;6.97;1.90;;;14.00;1.00;;;;;;10168743;28;84352;-46
2022/05/15 00:31:42;;;;;;;6.70;2.10;;;14.00;1.00;;;;;;10167943;28;84621;-45
2022/05/15 00:36:43;;;;;;;5.90;2.10;;;13.90;1.00;;;;;;10161186;28;86072;-47
2022/05/15 00:41:44;;;;;;;6.07;2.20;;;13.80;1.00;;;;;;10150154;28;87154;-48
2022/05/15 00:46:45;;;;;;;6.68;1.77;;;13.70;1.00;;;;;;10169235;28;85120;-53
2022/05/15 00:51:50;;;;;;;6.18;2.05;;;13.70;1.00;;;;;;10191695;28;85933;-47
2022/05/15 00:56:57;;;;;;;6.38;1.90;;;13.60;1.00;;;;;;10193555;28;84782;-48
2022/05/15 01:01:58;;;;;;;6.88;2.03;;;13.60;1.00;;;;;;10135699;28;84097;-48
2022/05/15 01:07:01;;;;;;;6.13;2.30;;;13.60;1.00;;;;;;10167675;28;85111;-48
2022/05/15 01:12:03;;;;;;;4.90;1.88;;;13.50;1.00;;;;;;10167090;28;84023;-46
2022/05/15 01:17:05;;;;;;;6.50;2.30;;;13.40;1.00;;;;;;10166331;28;87000;-49
2022/05/15 01:22:08;;;;;;;8.23;1.83;;;13.40;1.00;;;;;;10149760;28;85711;-46
2022/05/15 01:27:12;;;;;;;4.00;1.80;;;13.30;1.00;;;;;;10164560;28;85030;-49
2022/05/15 01:32:13;;;;;;;;;;;13.30;1.00;;;;;;10168407;28;84780;-46
2022/05/15 01:37:15;;;;;;;4.93;2.15;;;13.30;1.00;;;;;;10184367;28;87029;-47
2022/05/15 01:42:16;;;;;;;3.63;1.90;;;13.30;1.00;;;;;;10148197;28;85875;-46
2022/05/15 01:47:17;;;;;;;7.32;2.13;;;13.30;1.00;;;;;;10168720;28;87135;-47
2022/05/15 01:52:18;;;;;;;8.00;2.05;;;13.30;1.00;;;;;;10131853;28;86075;-47
2022/05/15 01:57:19;;;;;;;5.72;2.28;;;13.20;1.00;;;;;;10148080;28;86800;-48
2022/05/15 02:02:19;;;;;;;6.88;2.05;;;13.10;1.00;;;;;;10165817;28;84282;-46
2022/05/15 02:07:20;;;;;;;5.03;1.95;;;13.10;1.00;;;;;;10201146;28;84720;-48
2022/05/15 02:12:21;;;;;;;6.80;1.95;;;13.00;1.00;;;;;;10164269;28;86315;-46
2022/05/15 02:17:24;;;;;;;8.13;2.28;;;13.00;1.00;;;;;;10165708;28;84945;-45
2022/05/15 02:22:25;;;;;;;5.15;2.17;;;12.90;1.00;;;;;;10174438;28;86811;-44
2022/05/15 02:27:26;;;;;;;6.43;2.47;;;12.90;1.00;;;;;;10203557;28;87184;-44
2022/05/15 02:32:27;;;;;;;8.10;2.15;;;12.90;1.00;;;;;;10175531;28;85755;-44
2022/05/15 02:37:28;;;;;;;5.80;1.85;;;12.80;1.00;;;;;;10164925;28;86816;-51
2022/05/15 02:42:30;;;;;;;5.68;2.53;;;12.80;1.00;;;;;;10164881;28;85838;-46
2022/05/15 02:47:31;;;;;;;6.78;2.35;;;12.80;1.00;;;;;;10145650;28;87082;-48
2022/05/15 02:52:35;;;;;;;4.57;1.90;;;12.80;1.00;;;;;;10162772;28;87000;-47
2022/05/15 02:57:40;;;;;;;5.65;2.22;;;12.70;1.00;;;;;;10143717;28;86791;-46
2022/05/15 03:02:41;;;;;;;7.43;2.15;;;12.70;1.00;;;;;;10161220;28;86958;-45
2022/05/15 03:07:43;;;;;;;7.15;2.33;;;12.50;1.00;;;;;;10155364;28;86946;-49
2022/05/15 03:12:44;;;;;;;6.35;2.38;;;12.50;1.00;;;;;;10159063;28;86830;-44
2022/05/15 03:17:45;;;;;;;5.20;2.03;;;12.40;1.00;;;;;;10155335;28;86838;-46
2022/05/15 03:22:46;;;;;;;4.43;1.80;;;12.30;1.00;;;;;;10161445;28;84864;-42
2022/05/15 03:27:46;;;;;;;7.20;3.00;;;12.30;1.00;;;;;;10160503;28;84990;-47
2022/05/15 03:32:47;;;;;;;;;;;12.30;1.00;;;;;;10159357;28;85966;-48
2022/05/15 03:37:48;;;;;;;;;;;12.30;1.00;;;;;;10164416;28;85361;-46
2022/05/15 03:42:48;;;;;;;;;;;12.20;1.00;;;;;;10152037;28;84958;-46
2022/05/15 03:47:53;;;;;;;;;;;12.20;1.00;;;;;;10172298;28;84927;-47
2022/05/15 03:52:55;;;;;;;;;;;12.20;1.00;;;;;;10151684;28;86859;-47
2022/05/15 03:57:56;;;;;;;;;;;12.20;1.00;;;;;;10152275;28;84197;-46
2022/05/15 04:02:58;;;;;;;;;;;12.20;1.00;;;;;;10166408;28;86598;-46
2022/05/15 04:07:58;;;;;;;;;;;12.10;1.00;;;;;;10151669;28;85743;-46
2022/05/15 04:12:59;;;;;;;;;;;12.10;1.00;;;;;;10151618;28;85831;-51
2022/05/15 04:17:59;;;;;;;;;;;12.00;1.00;;;;;;10166279;28;85116;-47
2022/05/15 04:23:00;;;;;;;;;;;12.00;1.00;;;;;;10151344;28;86768;-47
2022/05/15 04:28:01;;;;;;;;;;;11.90;5.30;;;;;;10190668;22;85881;-56
2022/05/15 04:33:02;;;;;;;;;;;12.00;1.00;;;;;;10255612;28;86945;-56
2022/05/15 04:38:02;;;;;;;;;;;12.00;2.60;;;;;;10253907;28;84923;-57
2022/05/15 04:43:03;;;;;;;;;;;12.10;1.00;;;;;;10223296;28;84228;-56
2022/05/15 04:48:04;;;;;;;;;;;12.10;1.00;;;;;;10204579;28;85917;-54
2022/05/15 04:53:05;;;;;;;;;;;12.20;1.00;;;;;;10214728;28;85980;-56
2022/05/15 04:58:05;;;;;;;;;;;12.20;1.00;;;;;;10209131;28;84900;-56
2022/05/15 05:03:06;;;;;;;;;;;12.30;1.00;;;;;;10207387;28;85983;-55
2022/05/15 05:08:10;;;;;;;;;;;12.40;1.00;;;;;;10209109;28;84774;-56
2022/05/15 05:13:10;;;;;;;;;;;12.50;1.00;;;;;;10186417;28;84787;-57
2022/05/15 05:18:15;;;;;;;;;;;12.70;1.00;;;;;;10210000;28;85189;-54
2022/05/15 05:23:16;;;;;;;;;;;12.80;1.00;;;;;;10200811;28;84388;-54
2022/05/15 05:28:17;;;;;;;;;;;12.90;1.00;;;;;;10205157;28;84399;-55
2022/05/15 05:33:17;;;;;;;;;;;13.10;1.00;;;;;;10209998;28;84919;-57
2022/05/15 05:38:18;;;;;;;;;;;13.30;1.00;;;;;;10231916;28;85756;-53
2022/05/15 05:43:18;;;;;;;;;;;13.50;1.00;;;;;;10229926;28;84417;-57
2022/05/15 05:48:19;;;;;;;;;;;13.70;1.00;;;;;;10188320;28;84152;-56
2022/05/15 05:53:19;;;;;;;;;;;13.90;1.00;;;;;;10188747;28;86154;-55
2022/05/15 05:58:20;;;;;;;;;;;14.10;1.00;;;;;;10201383;28;84315;-56
2022/05/15 06:08:40;;;;;;;;;;;14.60;1.00;;;;;;10189501;28;85256;-55
2022/05/15 06:13:40;;;;;;;;;;;14.90;1.00;;;;;;10193580;28;84900;-55
2022/05/15 06:18:41;;;;;;;;;;;15.20;1.00;;;;;;10194339;28;84861;-52
2022/05/15 06:23:41;;;;;;;;;;;15.30;1.00;;;;;;10204904;28;84939;-56
2022/05/15 06:28:42;;;;;;;;;;;15.60;1.00;;;;;;10190440;28;84786;-52
2022/05/15 06:33:42;;;;;;;;;;;15.90;1.00;;;;;;10189267;28;84612;-55
2022/05/15 06:38:43;;;;;;;;;;;16.10;1.00;;;;;;10188950;28;84876;-50
2022/05/15 06:43:43;;;;;;;;;;;16.40;1.00;;;;;;10184602;28;84737;-54
2022/05/15 06:48:44;;;;;;;;;;;16.60;1.00;;;;;;10196387;28;84155;-52
2022/05/15 06:53:46;;;;;;;;;;;17.00;1.00;;;;;;10184093;28;84405;-52
2022/05/15 06:58:46;;;;;;;;;;;17.40;1.00;;;;;;10186099;28;84954;-55
2022/05/15 07:03:47;;;;;;;;;;;17.80;99.90;;;;;;10184765;28;84819;-52
2022/05/15 07:08:48;;;;;;;;;;;18.30;99.90;;;;;;10182343;28;84227;-55
2022/05/15 07:13:48;;;;;;;;;;;18.60;99.90;;;;;;10213304;28;84915;-54
2022/05/15 07:18:49;;;;;;;;;;;19.30;1.00;;;;;;10211012;28;84921;-57
2022/05/15 07:23:50;;;;;;;;;;;20.00;1.00;;;;;;10212395;28;84102;-58
2022/05/15 07:28:51;;;;;;;;;;;20.70;20.30;;;;;;10210301;28;85103;-57
2022/05/15 07:33:52;;;;;;;;;;;21.10;1.00;;;;;;10191086;28;84381;-55
2022/05/15 07:38:52;;;;;;;;;;;21.90;1.00;;;;;;10210827;28;84227;-49
2022/05/15 07:43:53;;;;;;;;;;;22.10;1.00;;;;;;10211500;28;84098;-52
2022/05/15 07:48:54;;;;;;;;;;;22.40;1.00;;;;;;10211090;28;84351;-56
2022/05/15 07:53:54;;;;;;;;;;;22.90;99.90;;;;;;10210211;28;84920;-51
2022/05/15 07:58:55;;;;;;;;;;;23.40;1.00;;;;;;10211155;28;84024;-49
2022/05/15 08:03:56;;;;;;;;;;;23.70;1.00;;;;;;10209156;28;85074;-57
2022/05/15 08:08:57;;;;;;;;;;;24.00;1.00;;;;;;10210855;28;84095;-58
2022/05/15 08:14:00;;;;;;;;;;;24.40;99.90;;;;;;10210583;28;84218;-56
2022/05/15 08:24:22;;;;;;;;;;;25.10;1.00;;;;;;10209646;28;84123;-49
2022/05/15 08:29:23;;;;;;;;;;;25.70;1.00;;;;;;10210210;28;85031;-57
2022/05/15 08:34:24;;;;;;;;;;;25.80;99.90;;;;;;10202248;28;86829;-48
2022/05/15 08:39:24;;;;;;;;;;;26.20;38.00;;;;;;10207188;28;87164;-56
2022/05/15 08:44:32;;;;;;;;;;;26.50;1.00;;;;;;10209898;28;84285;-55
2022/05/15 08:49:33;;;;;;;;;;;27.00;1.00;;;;;;10209163;28;84238;-55
2022/05/15 08:54:36;;;;;;;;;;;27.40;1.00;;;;;;10196096;28;85176;-55
2022/05/15 08:59:41;;;;;;;;;;;27.70;1.00;;;;;;10198787;28;84316;-53
2022/05/15 09:04:41;;;;;;;;;;;28.20;99.90;;;;;;10202043;28;84325;-49
2022/05/15 09:10:11;;;;;;;;;;;28.20;99.90;;;;;;10207088;28;84889;-51
2022/05/15 09:15:14;;;;;;;;;;;29.00;99.00;;;;;;10207513;28;84300;-49
2022/05/15 09:20:17;;;;;;;;;;;29.30;1.00;;;;;;10203882;28;85109;-50
2022/05/15 09:25:20;;;;;;;;;;;29.40;1.00;;;;;;10205455;28;84069;-50
2022/05/15 09:30:20;;;;;;;;;;;29.70;1.00;;;;;;10206244;28;85060;-48
2022/05/15 09:35:33;;;;;;;;;;;29.40;1.00;;;;;;10205515;28;85806;-53
2022/05/15 09:46:19;;;;;;;;;;;29.80;1.00;;;;;;10206727;28;83991;-50
2022/05/15 09:51:36;;;;;;;;;;;29.90;1.00;;;;;;10205050;28;84742;-49
2022/05/15 09:56:36;;;;;;;;;;;30.20;1.00;;;;;;10206414;28;84911;-56
2022/05/15 10:01:39;;;;;;;;;;;29.90;1.00;;;;;;10199462;28;84216;-53
2022/05/15 10:06:48;;;;;;;;;;;30.10;1.00;;;;;;10181301;28;84261;-51
2022/05/15 10:11:51;;;;;;;;;;;29.90;1.00;;;;;;10187026;28;84766;-53
2022/05/15 10:16:54;;;;;;;;;;;30.00;1.00;;;;;;10197101;28;85257;-52
2022/05/15 10:22:05;;;;;;;;;;;30.80;1.00;;;;;;10185838;28;84920;-51
2022/05/15 10:27:18;;;;;;;;;;;31.20;1.00;;;;;;10170457;28;84911;-52
2022/05/15 10:32:27;;;;;;;;;;;30.90;1.00;;;;;;10216427;22;84038;-49
2022/05/15 10:37:55;;;;;;;;;;;30.20;1.00;;;;;;10179570;28;84042;-49
2022/05/15 10:42:58;;;;;;;;;;;30.70;1.00;;;;;;10123845;28;84056;-42
2022/05/15 10:48:04;;;;;;;;;;;31.20;1.00;;;;;;10156644;28;84998;-49
2022/05/15 10:57:21;;;;;;;;;;;31.10;1.00;;;;;;10164691;28;84720;-50
2022/05/15 10:58:36;;;;;;;;;;;31.90;1.00;;;;;;10149653;28;84040;-50
2022/05/15 11:03:50;;;;;;;;;;;32.30;1.00;;;;;;10124131;28;84054;-49
2022/05/15 11:09:00;;;;;;;;;;;32.00;1.00;;;;;;10136441;28;85091;-53
2022/05/15 11:14:06;;;;;;;;;;;31.40;1.00;;;;;;10164455;28;84955;-49
2022/05/15 11:19:06;;;;;;;;;;;31.00;1.00;;;;;;10141075;28;84896;-48
2022/05/15 11:24:09;;;;;;;;;;;31.50;1.00;;;;;;10163303;28;84090;-44
2022/05/15 11:29:12;;;;;;;;;;;31.80;1.00;;;;;;10163449;28;84784;-43
2022/05/15 11:34:13;;;;;;;;;;;31.90;1.00;;;;;;10144690;28;85000;-43
2022/05/15 11:39:13;;;;;;;;;;;32.20;1.00;;;;;;10165285;28;85009;-43
2022/05/15 11:44:14;;;;;;;;;;;31.90;1.00;;;;;;10150257;28;86077;-47
2022/05/15 11:49:34;;;;;;;;;;;31.90;1.00;;;;;;10169453;28;84073;-45
2022/05/15 11:54:37;;;;;;;;;;;31.50;99.90;;;;;;10171270;28;84868;-43
2022/05/15 11:59:49;;;;;;;;;;;31.70;1.00;;;;;;10161046;28;84441;-63
2022/05/15 12:04:55;;;;;;;;;;;31.20;1.00;;;;;;10122697;28;85626;-63
2022/05/15 12:09:56;;;;;;;;;;;31.30;99.90;;;;;;10147631;28;84367;-62
2022/05/15 12:15:10;;;;;;;;;;;31.00;99.90;;;;;;10140231;28;85425;-60
2022/05/15 12:20:16;;;;;;;;;;;31.00;99.90;;;;;;10132970;28;84269;-47
2022/05/15 12:25:17;;;;;;;;;;;31.30;99.90;;;;;;10135669;28;84050;-52
2022/05/15 12:30:19;;;;;;;;;;;31.70;99.90;;;;;;10136571;28;86330;-49
2022/05/15 12:35:32;;;;;;;;;;;32.20;99.90;;;;;;10143825;28;85254;-64
2022/05/15 12:40:34;;;;;;;;;;;32.60;1.00;;;;;;10171630;28;84524;-47
2022/05/15 12:45:38;;;;;;;;;;;31.40;99.90;;;;;;10147690;28;84144;-48
2022/05/15 12:50:50;;;;;;;;;;;31.80;99.90;;;;;;10147393;28;84019;-54
2022/05/15 12:55:51;;;;;;;;;;;32.00;99.90;;;;;;10128753;28;85294;-48
2022/05/15 13:00:54;;;;;;;;;;;32.60;99.90;;;;;;10129247;28;84995;-48
2022/05/15 13:05:56;;;;;;;;;;;32.00;99.90;;;;;;10146570;28;85091;-49
2022/05/15 13:11:00;;;;;;;;;;;31.30;99.90;;;;;;10137957;28;86870;-49
2022/05/15 13:16:01;;;;;;;;;;;31.80;99.90;;;;;;10140041;28;85024;-46
2022/05/15 13:21:06;;;;;;;;;;;31.60;99.90;;;;;;10149623;28;84829;-51
2022/05/15 13:26:09;;;;;;;;;;;32.10;99.90;;;;;;10119995;28;85039;-54
2022/05/15 13:31:12;;;;;;;;;;;31.60;99.90;;;;;;10144429;28;86933;-50
2022/05/15 13:36:14;;;;;;;;;;;31.60;99.90;;;;;;10157017;28;84959;-47
2022/05/15 13:46:38;;;;;;;;;;;31.40;99.90;;;;;;10165390;28;86102;-50
2022/05/15 13:51:47;;;;;;;;;;;31.20;99.90;;;;;;10162651;28;84933;-49
2022/05/15 13:56:47;;;;;;;;;;;31.10;99.90;;;;;;10165417;28;87010;-49
2022/05/15 14:02:02;;;;;;;;;;;31.30;99.90;;;;;;10163779;28;84358;-49
2022/05/15 14:07:03;;;;;;;;;;;31.40;99.90;;;;;;10163824;28;84849;-52
2022/05/15 14:12:04;;;;;;;;;;;30.80;99.90;;;;;;10160646;28;84278;-50
2022/05/15 14:17:05;;;;;;;;;;;30.50;99.90;;;;;;10130836;28;84119;-52
2022/05/15 14:22:06;;;;;;;;;;;29.60;99.90;;;;;;10136892;28;84970;-48
2022/05/15 14:27:06;;;;;;;;;;;28.90;99.90;;;;;;10147104;28;86230;-48
2022/05/15 14:32:09;;;;;;;;;;;28.20;99.90;;;;;;10163512;28;83964;-47
2022/05/15 14:37:09;;;;;;;;;;;27.60;99.90;;;;;;10145984;28;84761;-47
2022/05/15 14:42:11;;;;;;;;;;;27.30;99.90;;;;;;10147880;28;84826;-48
2022/05/15 14:47:14;;;;;;;;;;;27.10;99.90;;;;;;10145980;28;84915;-45
2022/05/15 14:52:17;;;;;;;;;;;26.90;99.90;;;;;;10155163;28;84990;-45
2022/05/15 14:57:20;;;;;;;;;;;26.60;99.90;;;;;;10132202;28;84205;-49
2022/05/15 15:02:22;;;;;;;;;;;26.40;99.90;;;;;;10163743;28;84914;-48
2022/05/15 15:07:23;;;;;;;;;;;26.20;99.90;;;;;;10163164;28;84156;-51
2022/05/15 15:12:24;;;;;;;;;;;26.30;99.90;;;;;;10160416;28;84818;-47
2022/05/15 15:17:24;;;;;;;;;;;26.20;99.90;;;;;;10127370;28;84259;-48
2022/05/15 15:22:25;;;;;;;;;;;26.10;99.90;;;;;;10153299;28;84900;-49
2022/05/15 15:27:25;;;;;;;;;;;25.80;99.90;;;;;;10161843;28;84835;-49
2022/05/15 15:32:26;;;;;;;;;;;25.80;99.90;;;;;;10155340;28;85004;-45
2022/05/15 15:42:46;;;;;;;;;;;25.80;99.90;;;;;;10169046;28;85069;-48
2022/05/15 15:47:46;;;;;;;;;;;25.90;99.90;;;;;;10167541;28;84723;-49
2022/05/15 15:52:47;;;;;;;;;;;25.90;99.90;;;;;;10145351;28;87859;-45
2022/05/15 15:57:47;;;;;;;;;;;25.70;99.90;;;;;;10159749;28;83983;-47
2022/05/15 16:02:48;;;;;;;;;;;25.60;99.90;;;;;;10169256;28;84907;-48
2022/05/15 16:07:49;;;;;;;;;;;25.50;99.90;;;;;;10120444;28;86885;-47
2022/05/15 16:12:49;;;;;;;;;;;25.40;99.90;;;;;;10134420;28;84905;-52
2022/05/15 16:17:50;;;;;;;;;;;25.40;99.90;;;;;;10168783;28;84017;-49
2022/05/15 16:22:52;;;;;;;;;;;25.20;99.90;;;;;;10149522;28;84853;-47
2022/05/15 16:27:53;;;;;;;;;;;25.20;99.90;;;;;;10141289;28;84128;-48
2022/05/15 16:32:53;;;;;;;;;;;24.90;99.90;;;;;;10151992;28;84078;-50
2022/05/15 16:37:54;;;;;;;;;;;24.90;99.90;;;;;;10159993;28;84281;-47
2022/05/15 16:42:54;;;;;;;;;;;24.90;99.90;;;;;;10160365;28;84953;-48
2022/05/15 16:47:55;;;;;;;;;;;24.90;99.90;;;;;;10189409;22;84959;-48
2022/05/15 16:52:56;;;;;;;;;;;24.80;99.90;;;;;;10219792;28;86264;-49
2022/05/15 16:57:57;;;;;;;;;;;24.90;99.90;;;;;;10221486;28;86296;-47
2022/05/15 17:02:58;;;;;;;;;;;24.90;99.90;;;;;;10223275;28;85431;-46
2022/05/15 17:07:59;;;;;;;;;;;24.80;99.90;;;;;;10241394;28;84850;-45
2022/05/15 17:12:59;;;;;;;;;;;24.70;99.90;;;;;;10205582;28;84956;-47
2022/05/15 17:18:00;;;;;;;;;;;24.80;99.90;;;;;;10209709;28;85323;-48
2022/05/15 17:23:01;;;;;;;;;;;24.60;99.90;;;;;;10222698;28;84248;-48
2022/05/15 17:28:03;;;;;;;;;;;24.70;99.90;;;;;;10209466;28;85081;-49
2022/05/15 17:38:23;;;;;;;;;;;24.40;99.90;;;;;;10198296;28;87192;-45
2022/05/15 17:43:23;;;;;;;;;;;24.30;99.90;;;;;;10204928;28;84186;-47
2022/05/15 17:48:24;;;;;;;;;;;24.20;99.90;;;;;;10212554;28;84141;-47
2022/05/15 17:53:24;;;;;;;;;;;24.00;99.90;;;;;;10195428;28;85121;-52
2022/05/15 17:58:25;;;;;;;;;;;24.00;99.90;;;;;;10206026;28;84990;-60
2022/05/15 18:03:25;;;;;;;;;;;24.00;99.90;;;;;;10208042;28;84902;-59
2022/05/15 18:08:26;;;;;;;;;;;23.90;99.90;;;;;;10207743;28;84763;-59
2022/05/15 18:13:27;;;;;;;;;;;23.70;99.90;;;;;;10221525;28;84370;-60
2022/05/15 18:18:27;;;;;;;;;;;23.60;99.90;;;;;;10206896;28;86221;-59
2022/05/15 18:23:30;;;;;;;;;;;23.50;99.90;;;;;;10207587;28;87054;-60
2022/05/15 18:28:31;;;;;;;;;;;23.40;99.90;;;;;;10216221;28;84970;-57
2022/05/15 18:33:32;;;;;;;;;;;23.30;1.00;;;;;;10208641;28;84112;-60
2022/05/15 18:38:33;;;;;;;;;;;23.20;1.00;;;;;;10205809;28;84764;-60
2022/05/15 18:43:34;;;;;;;;;;;23.10;1.00;;;;;;10224063;28;84262;-61
2022/05/15 18:48:35;;;;;;;;;;;22.90;1.00;;;;;;10221637;28;85092;-56
2022/05/15 18:58:55;;;;;;;;;;;22.70;1.00;;;;;;10199354;28;86801;-59
2022/05/15 19:03:56;;;;;;;;;;;22.60;1.00;;;;;;10228627;28;84180;-58
2022/05/15 19:08:57;;;;;;;;;;;22.50;1.00;;;;;;10233086;28;84943;-60
2022/05/15 19:13:58;;;;;;;;;;;22.30;1.00;;;;;;10215148;28;85047;-59
2022/05/15 19:18:59;;;;;;;;;;;22.10;1.00;;;;;;10217118;28;84821;-51
2022/05/15 19:23:59;;;;;;;;;;;21.90;1.00;;;;;;10238363;28;84757;-49
2022/05/15 19:29:00;;;;;;;;;;;21.80;1.00;;;;;;10207809;28;86094;-48
2022/05/15 19:34:00;;;;;;;;;;;21.70;1.00;;;;;;10209460;28;84225;-52
2022/05/15 19:39:01;;;;;;;;;;;21.50;1.00;;;;;;10208637;28;84920;-52
2022/05/15 19:44:02;;;;;;;;;;;21.30;99.90;;;;;;10222896;28;84129;-45
2022/05/15 19:49:02;;;;;;;;;;;21.20;1.00;;;;;;10199564;28;84032;-47
2022/05/15 19:54:03;;;;;;;;;;;21.10;1.00;;;;;;10210856;28;84279;-50
2022/05/15 19:59:04;;;;;;;;;;;21.00;1.00;;;;;;10199777;28;85925;-47
2022/05/15 20:04:05;;;;;;;;;;;20.90;99.90;;;;;;10210644;28;85114;-44
2022/05/15 20:14:25;;;;;;;;;;;20.60;99.90;;;;;;10193893;28;85046;-47
2022/05/15 20:19:26;;;;;;;;;;;20.60;1.00;;;;;;10210226;28;85253;-46
2022/05/15 20:24:26;;;;;;;;;;;20.40;1.00;;;;;;10192525;28;86934;-46
2022/05/15 20:29:27;;;;;;;;;;;20.20;99.90;;;;;;10208046;28;84413;-46
2022/05/15 20:34:28;;;;;;;;;;;20.10;99.90;;;;;;10191487;28;85351;-49
2022/05/15 20:39:29;;;;;;;;;;;20.00;1.00;;;;;;10223147;28;84315;-45
2022/05/15 20:44:30;;;;;;;;;;;19.90;99.90;;;;;;10236963;28;84845;-47
2022/05/15 20:49:31;;;;;;;;;;;19.80;1.00;;;;;;10207635;28;84787;-46
2022/05/15 20:54:34;;;;;;;;;;;19.70;99.90;;;;;;10209158;28;85529;-47
2022/05/15 20:59:36;;;;;;;;;;;19.70;1.00;;;;;;10216587;28;85788;-47
2022/05/15 21:04:37;;;;;;;;;;;19.50;1.00;;;;;;10218059;28;85992;-48
2022/05/15 21:09:38;;;;;;;;;;;19.40;99.90;;;;;;10219825;28;84181;-44
2022/05/15 21:14:38;;;;;;;;;;;19.20;99.90;;;;;;10207555;28;85140;-45
2022/05/15 21:19:39;;;;;;;;;;;19.20;1.00;;;;;;10210073;28;84702;-48
2022/05/15 21:24:40;;;;;;;;;;;19.00;1.00;;;;;;10188829;28;85842;-50
2022/05/15 21:29:41;;;;;;;;;;;19.00;1.00;;;;;;10206711;28;84327;-48
2022/05/15 21:34:41;;;;;;;;;;;18.80;1.00;;;;;;10223099;28;84308;-44
2022/05/15 21:45:03;;;;;;;;;;;18.70;1.00;;;;;;10188360;28;84226;-48
2022/05/15 21:50:04;;;;;;;;;;;18.60;1.00;;;;;;10187754;28;84136;-48
2022/05/15 21:55:05;;;;;;;;;;;18.50;2.90;;;;;;10206444;28;84014;-48
2022/05/15 22:00:26;;;;;;;;;;;18.50;51.70;;;;;;10188947;28;84784;-47
2022/05/15 22:05:27;;;;;;;;;;;18.40;98.20;;;;;;10195975;28;86703;-52
2022/05/15 22:10:28;;;;;;;;;;;18.30;99.90;;;;;;10205748;28;84955;-47
2022/05/15 22:15:28;;;;;;;;;;;18.20;99.90;;;;;;10149327;28;87181;-48
2022/05/15 22:20:29;;;;;;;;;;;18.10;99.90;;;;;;10187094;28;87197;-47
2022/05/15 22:25:29;;;;;;;;;;;18.10;99.90;;;;;;10205919;28;84947;-49
2022/05/15 22:30:30;;;;;;;;;;;17.90;99.90;;;;;;10170618;28;86422;-47
2022/05/15 22:35:31;;;;;;;;;;;17.90;99.90;;;;;;10204323;28;84050;-49
2022/05/15 22:40:31;;;;;;;;;;;17.80;99.90;;;;;;10210938;28;85118;-47
2022/05/15 22:45:32;;;;;;;;;;;17.80;99.90;;;;;;10203884;28;84150;-49
2022/05/15 22:50:33;;;;;;;;;;;17.70;99.90;;;;;;10311416;23;84916;-45
2022/05/15 22:55:34;;;;;;;;;;;17.60;99.90;;;;;;10315770;28;86924;-48
2022/05/15 23:00:35;;;;;;;;;;;17.50;99.90;;;;;;10326625;28;84148;-47
2022/05/15 23:10:54;;;;;;;;;;;17.50;1.00;;;;;;10301419;28;85942;-48
2022/05/15 23:15:55;;;;;;;;;;;17.40;1.00;;;;;;10288532;28;84947;-47
2022/05/15 23:20:56;;;;;;;;;;;17.40;1.00;;;;;;10291915;28;84040;-52
2022/05/15 23:26:00;;;;;;;;;;;17.30;1.00;;;;;;10287545;28;84062;-47
2022/05/15 23:31:01;;;;;;;;;;;17.20;1.00;;;;;;10284245;28;84877;-45
2022/05/15 23:36:01;;;;;;;;;;;17.20;1.00;;;;;;10245257;28;84114;-47
2022/05/15 23:41:03;;;;;;;;;;;17.10;1.00;;;;;;10303625;28;84339;-48
2022/05/15 23:46:03;;;;;;;;;;;17.00;1.00;;;;;;10291688;28;84452;-48
2022/05/15 23:51:04;;;;;;;;;;;17.00;1.00;;;;;;10289721;28;84236;-50
2022/05/15 23:56:04;;;;;;;;;;;16.90;1.00;;;;;;10331328;28;84935;-47
